createdAt,value
2018-04-18T00:00:23.140Z,8.10
2018-04-18T00:05:06.417Z,8.10
2018-04-18T00:09:49.736Z,8.10
2018-04-18T00:14:33.076Z,8.20
2018-04-18T00:19:16.408Z,8.20
2018-04-18T00:23:59.744Z,8.20
2018-04-18T00:28:43.063Z,8.20
2018-04-18T00:33:26.372Z,8.20
2018-04-18T00:38:09.684Z,8.10
2018-04-18T00:42:53.006Z,8.10
2018-04-18T00:47:36.453Z,8.10
2018-04-18T00:52:19.753Z,8.10
2018-04-18T00:57:03.792Z,8.10
2018-04-18T01:01:47.111Z,8.10
2018-04-18T01:06:30.464Z,8.10
2018-04-18T01:11:13.757Z,8.10
2018-04-18T01:15:57.099Z,8.00
2018-04-18T01:20:40.506Z,8.00
2018-04-18T01:25:23.795Z,7.90
2018-04-18T01:30:07.191Z,7.80
2018-04-18T01:34:51.248Z,7.70
2018-04-18T01:39:34.670Z,7.70
2018-04-18T01:44:18.085Z,7.60
2018-04-18T01:54:17.371Z,7.60
2018-04-18T01:59:00.817Z,7.70
2018-04-18T02:03:44.184Z,7.70
2018-04-18T02:08:27.544Z,7.50
2018-04-18T02:13:10.833Z,7.70
2018-04-18T02:17:54.191Z,7.60
2018-04-18T02:22:37.472Z,7.50
2018-04-18T02:27:20.782Z,7.50
2018-04-18T02:32:04.101Z,7.50
2018-04-18T02:36:47.399Z,7.60
2018-04-18T02:41:30.754Z,7.60
2018-04-18T02:46:14.053Z,7.50
2018-04-18T02:50:57.378Z,7.60
2018-04-18T02:55:40.687Z,7.50
2018-04-18T03:00:24.774Z,7.50
2018-04-18T03:05:08.075Z,7.50
2018-04-18T03:09:51.423Z,7.50
2018-04-18T03:14:35.534Z,7.50
2018-04-18T03:19:18.843Z,7.50
2018-04-18T03:24:02.164Z,7.50
2018-04-18T03:28:45.540Z,7.40
2018-04-18T03:33:28.857Z,7.40
2018-04-18T03:38:12.914Z,7.40
2018-04-18T03:42:56.205Z,7.40
2018-04-18T03:47:39.487Z,7.50
2018-04-18T03:52:23.640Z,7.60
2018-04-18T03:57:07.147Z,7.50
2018-04-18T04:01:50.466Z,7.50
2018-04-18T04:06:33.813Z,7.50
2018-04-18T04:11:17.907Z,7.70
2018-04-18T04:16:01.186Z,7.70
2018-04-18T04:20:56.308Z,7.80
2018-04-18T04:25:39.608Z,7.80
2018-04-18T04:30:23.077Z,7.70
2018-04-18T04:35:07.238Z,7.50
2018-04-18T04:39:51.309Z,7.50
2018-04-18T04:44:34.581Z,7.40
2018-04-18T04:49:17.962Z,7.70
2018-04-18T04:54:02.039Z,8.10
2018-04-18T04:58:45.370Z,8.10
2018-04-18T05:03:29.433Z,8.50
2018-04-18T05:08:12.773Z,8.40
2018-04-18T05:12:56.848Z,8.80
2018-04-18T05:17:40.166Z,8.80
2018-04-18T05:22:23.459Z,9.00
2018-04-18T05:27:06.743Z,9.30
2018-04-18T05:31:50.798Z,9.70
2018-04-18T05:36:34.870Z,9.90
2018-04-18T05:41:18.939Z,10.10
2018-04-18T05:46:02.246Z,10.10
2018-04-18T05:50:45.592Z,10.50
2018-04-18T05:55:28.956Z,10.70
2018-04-18T06:00:13.035Z,11.20
2018-04-18T06:04:56.391Z,11.20
2018-04-18T06:09:39.700Z,11.40
2018-04-18T06:14:23.043Z,11.70
2018-04-18T06:19:06.594Z,11.90
2018-04-18T06:23:49.961Z,12.10
2018-04-18T06:28:33.308Z,12.20
2018-04-18T06:33:16.689Z,12.30
2018-04-18T06:37:59.992Z,12.20
2018-04-18T06:42:44.072Z,12.70
2018-04-18T06:52:11.313Z,13.30
2018-04-18T06:56:54.595Z,13.80
2018-04-18T07:01:38.675Z,15.10
2018-04-18T07:06:22.055Z,15.00
2018-04-18T07:11:05.505Z,15.70
2018-04-18T07:15:49.959Z,16.20
2018-04-18T07:20:33.284Z,16.60
2018-04-18T07:25:16.640Z,17.10
2018-04-18T07:29:59.951Z,17.60
2018-04-18T07:34:43.307Z,18.00
2018-04-18T07:39:26.612Z,18.40
2018-04-18T07:44:10.692Z,19.30
2018-04-18T07:48:54.056Z,19.30
2018-04-18T07:53:37.424Z,19.60
2018-04-18T07:58:20.749Z,20.00
2018-04-18T08:03:04.088Z,20.30
2018-04-18T08:07:47.383Z,20.50
2018-04-18T08:12:30.717Z,20.90
2018-04-18T08:17:14.078Z,21.30
2018-04-18T08:21:57.380Z,21.50
2018-04-18T08:26:40.686Z,21.50
2018-04-18T08:31:24.009Z,22.00
2018-04-18T08:36:07.315Z,22.10
2018-04-18T08:40:51.447Z,22.40
2018-04-18T08:45:34.742Z,22.40
2018-04-18T08:50:18.280Z,22.70
2018-04-18T08:55:01.598Z,22.90
2018-04-18T08:59:45.728Z,22.90
2018-04-18T09:04:29.025Z,22.90
2018-04-18T09:09:12.347Z,23.20
2018-04-18T09:13:55.698Z,23.30
2018-04-18T09:18:39.011Z,23.20
2018-04-18T09:23:22.355Z,23.70
2018-04-18T09:28:05.661Z,24.10
2018-04-18T09:32:49.011Z,24.00
2018-04-18T09:37:32.330Z,23.80
2018-04-18T09:42:15.661Z,23.80
2018-04-18T09:46:58.925Z,24.20
2018-04-18T09:51:43.360Z,24.60
2018-04-18T09:56:26.854Z,24.50
2018-04-18T10:01:10.210Z,24.50
2018-04-18T10:05:54.353Z,24.50
2018-04-18T10:10:37.748Z,24.40
2018-04-18T10:15:21.131Z,24.70
2018-04-18T10:20:04.431Z,24.80
2018-04-18T10:24:47.769Z,25.00
2018-04-18T10:29:31.924Z,25.40
2018-04-18T10:34:15.235Z,25.30
2018-04-18T10:38:59.370Z,25.70
2018-04-18T10:43:43.514Z,26.00
2018-04-18T10:48:26.810Z,26.00
2018-04-18T10:53:10.164Z,26.40
2018-04-18T10:57:53.439Z,26.50
2018-04-18T11:02:37.516Z,26.10
2018-04-18T11:07:21.003Z,26.10
2018-04-18T11:12:04.337Z,26.10
2018-04-18T11:16:47.717Z,25.90
2018-04-18T11:21:31.024Z,26.20
2018-04-18T11:26:14.351Z,26.30
2018-04-18T11:30:57.698Z,25.10
2018-04-18T11:35:40.990Z,25.70
2018-04-18T11:40:25.137Z,26.80
2018-04-18T11:45:08.467Z,26.80
2018-04-18T11:49:51.800Z,27.00
2018-04-18T11:54:35.139Z,27.00
2018-04-18T11:59:18.447Z,27.10
2018-04-18T12:04:01.773Z,27.10
2018-04-18T12:08:45.147Z,26.90
2018-04-18T12:13:28.467Z,26.40
2018-04-18T12:18:11.790Z,26.20
2018-04-18T12:22:55.902Z,26.80
2018-04-18T12:27:39.236Z,26.70
2018-04-18T12:32:22.676Z,27.30
2018-04-18T12:37:06.039Z,27.40
2018-04-18T12:41:50.169Z,26.80
2018-04-18T12:46:33.470Z,26.80
2018-04-18T12:51:16.832Z,26.90
2018-04-18T12:56:00.206Z,26.90
2018-04-18T13:00:43.561Z,26.60
2018-04-18T13:05:26.935Z,26.90
2018-04-18T13:10:11.083Z,26.80
2018-04-18T13:14:54.394Z,26.80
2018-04-18T13:19:37.710Z,26.80
2018-04-18T13:24:21.011Z,27.30
2018-04-18T13:29:04.336Z,27.40
2018-04-18T13:33:48.452Z,27.40
2018-04-18T13:38:31.948Z,27.40
2018-04-18T13:43:15.993Z,26.90
2018-04-18T13:48:00.055Z,26.90
2018-04-18T13:52:44.136Z,26.40
2018-04-18T13:57:27.504Z,26.40
2018-04-18T14:02:10.874Z,26.80
2018-04-18T14:06:54.274Z,26.90
2018-04-18T14:11:37.750Z,26.90
2018-04-18T14:16:21.051Z,27.10
2018-04-18T14:21:05.226Z,27.40
2018-04-18T14:25:48.565Z,27.30
2018-04-18T14:30:31.897Z,27.40
2018-04-18T14:35:15.237Z,27.30
2018-04-18T14:39:58.570Z,27.30
2018-04-18T14:44:41.926Z,27.10
2018-04-18T14:49:26.043Z,26.90
2018-04-18T14:54:10.114Z,27.10
2018-04-18T14:58:53.469Z,27.00
2018-04-18T15:03:36.785Z,26.70
2018-04-18T15:08:20.929Z,25.90
2018-04-18T15:13:05.017Z,25.90
2018-04-18T15:17:48.343Z,25.90
2018-04-18T15:22:32.395Z,25.80
2018-04-18T15:27:16.534Z,25.80
2018-04-18T15:31:59.899Z,25.80
2018-04-18T15:36:44.015Z,25.60
2018-04-18T15:41:27.323Z,25.60
2018-04-18T15:46:10.775Z,25.40
2018-04-18T15:50:54.128Z,25.40
2018-04-18T15:55:37.568Z,25.30
2018-04-18T16:00:20.973Z,25.80
2018-04-18T16:05:04.292Z,25.90
2018-04-18T16:09:47.755Z,26.10
2018-04-18T16:14:31.116Z,26.20
2018-04-18T16:19:14.472Z,26.30
2018-04-18T16:23:57.885Z,26.70
2018-04-18T16:28:41.270Z,27.10
2018-04-18T16:33:24.637Z,27.00
2018-04-18T16:38:07.933Z,26.60
2018-04-18T16:42:52.018Z,26.40
2018-04-18T16:47:35.515Z,26.40
2018-04-18T16:52:18.871Z,26.50
2018-04-18T16:57:02.214Z,26.30
2018-04-18T17:01:45.598Z,25.90
2018-04-18T17:06:28.963Z,25.70
2018-04-18T17:11:13.075Z,25.30
2018-04-18T17:15:57.450Z,25.20
2018-04-18T17:20:40.923Z,24.40
2018-04-18T17:25:25.203Z,21.00
2018-04-18T17:30:08.502Z,20.90
2018-04-18T17:34:51.894Z,19.70
2018-04-18T17:39:35.192Z,18.90
2018-04-18T17:44:19.294Z,17.20
2018-04-18T17:49:02.664Z,17.10
2018-04-18T17:53:46.068Z,16.60
2018-04-18T17:58:37.325Z,15.40
2018-04-18T18:03:28.837Z,15.30
2018-04-18T18:08:15.237Z,14.80
2018-04-18T18:12:58.668Z,14.50
2018-04-18T18:17:44.598Z,13.80
2018-04-18T18:22:27.980Z,13.80
2018-04-18T18:27:11.396Z,13.40
2018-04-18T18:31:59.452Z,13.10
2018-04-18T18:36:43.953Z,12.80
2018-04-18T18:41:27.456Z,12.80
2018-04-18T18:46:16.741Z,12.70
2018-04-18T18:51:09.150Z,12.50
2018-04-18T18:56:11.694Z,12.40
2018-04-18T19:10:35.024Z,12.30
2018-04-18T19:15:18.914Z,12.10
2018-04-18T19:20:05.034Z,12.00
2018-04-18T19:24:49.644Z,11.90
2018-04-18T19:29:33.097Z,11.90
2018-04-18T19:34:16.651Z,12.00
2018-04-18T19:39:03.491Z,12.00
2018-04-18T19:43:50.850Z,12.20
2018-04-18T19:48:35.719Z,12.30
2018-04-18T20:03:28.644Z,13.10
2018-04-18T20:08:13.559Z,13.10
2018-04-18T20:12:58.394Z,13.00
2018-04-18T20:17:42.113Z,12.80
2018-04-18T20:22:25.544Z,12.60
2018-04-18T20:27:09.700Z,12.90
2018-04-18T20:31:53.019Z,12.80
2018-04-18T20:36:52.096Z,12.90
2018-04-18T20:41:36.235Z,12.70
2018-04-18T20:46:20.382Z,12.30
2018-04-18T20:51:03.755Z,12.30
2018-04-18T20:55:47.208Z,12.40
2018-04-18T21:00:30.673Z,12.50
2018-04-18T21:05:14.812Z,12.90
2018-04-18T21:09:58.922Z,12.90
2018-04-18T21:14:43.132Z,13.00
2018-04-18T21:19:27.306Z,12.80
2018-04-18T21:24:10.686Z,12.80
2018-04-18T21:28:54.066Z,12.60
2018-04-18T21:33:37.414Z,12.50
2018-04-18T21:38:20.767Z,12.50
2018-04-18T21:43:04.172Z,12.50
2018-04-18T21:47:47.559Z,12.50
2018-04-18T21:52:30.903Z,12.50
2018-04-18T21:57:14.269Z,12.50
2018-04-18T22:07:26.976Z,12.50
2018-04-18T22:12:16.192Z,12.50
2018-04-18T22:16:59.549Z,12.40
2018-04-18T22:21:42.844Z,12.40
2018-04-18T22:26:26.193Z,12.20
2018-04-18T22:31:09.540Z,12.10
2018-04-18T22:35:52.877Z,12.10
2018-04-18T22:40:36.187Z,12.00
2018-04-18T22:45:19.580Z,11.90
2018-04-18T22:50:02.886Z,11.80
2018-04-18T22:54:46.294Z,11.90
2018-04-18T22:59:29.594Z,12.00
2018-04-18T23:04:12.964Z,11.90
2018-04-18T23:08:56.245Z,11.90
2018-04-18T23:13:39.608Z,11.80
2018-04-18T23:18:22.907Z,11.80
2018-04-18T23:23:07.001Z,11.60
2018-04-18T23:27:50.482Z,11.60
2018-04-18T23:32:33.771Z,11.60
2018-04-18T23:37:17.103Z,11.60
2018-04-18T23:42:00.420Z,11.70
2018-04-18T23:46:44.498Z,11.70
2018-04-18T23:51:27.827Z,11.80
2018-04-18T23:56:11.946Z,11.80
